Time;durP1;ratioP1;P1;durP2;ratioP2;P2;SDS_P1;SDS_P2;PMS_P1;PMS_P2;Temp;Humidity;BMP_temperature;BMP_pressure;BME280_temperature;BME280_humidity;BME280_pressure;Samples;Min_cycle;Max_cycle;Signal;HPM_P1;HPM_P2
2022/07/06 00:01:45;;;;;;;4.33;4.00;;;18.20;98.00;;;;;;4979772;28;20211;-65
2022/07/06 00:04:11;;;;;;;4.43;4.00;;;18.10;99.30;;;;;;4982334;28;20263;-64
2022/07/06 00:06:36;;;;;;;3.83;3.63;;;18.10;98.80;;;;;;4985929;28;20183;-65
2022/07/06 00:09:03;;;;;;;3.70;3.50;;;18.10;98.90;;;;;;4985070;28;20203;-65
2022/07/06 00:11:29;;;;;;;4.30;3.90;;;18.10;99.40;;;;;;4981989;28;20180;-64
2022/07/06 00:13:56;;;;;;;4.10;3.80;;;18.00;99.90;;;;;;4980626;28;20431;-65
2022/07/06 00:16:22;;;;;;;4.43;3.93;;;18.00;99.90;;;;;;4984609;28;20443;-65
2022/07/06 00:18:48;;;;;;;4.53;4.17;;;17.90;99.90;;;;;;4984885;28;20450;-65
2022/07/06 00:21:14;;;;;;;3.97;3.67;;;17.90;99.90;;;;;;4984762;28;20497;-65
2022/07/06 00:23:39;;;;;;;4.67;4.27;;;17.90;99.90;;;;;;4978111;28;20180;-65
2022/07/06 00:26:05;;;;;;;4.77;4.33;;;17.90;99.90;;;;;;4981143;28;20184;-65
2022/07/06 00:28:31;;;;;;;3.80;3.60;;;17.90;99.90;;;;;;4984811;28;20638;-65
2022/07/06 00:30:56;;;;;;;4.13;3.87;;;17.80;99.90;;;;;;4985777;28;20219;-65
2022/07/06 00:33:22;;;;;;;4.90;4.50;;;17.80;99.90;;;;;;4983294;28;20175;-64
2022/07/06 00:35:48;;;;;;;5.53;3.80;;;17.80;99.90;;;;;;4980065;28;20183;-65
2022/07/06 00:38:13;;;;;;;5.17;4.20;;;17.80;99.90;;;;;;4977320;28;20200;-65
2022/07/06 00:40:39;;;;;;;5.87;4.30;;;17.80;99.90;;;;;;4979020;28;20447;-64
2022/07/06 00:43:05;;;;;;;4.50;4.13;;;17.70;99.90;;;;;;4972070;28;20258;-65
2022/07/06 00:45:30;;;;;;;6.63;4.27;;;17.70;99.90;;;;;;4972093;28;20207;-64
2022/07/06 00:47:56;;;;;;;4.77;4.37;;;17.60;99.90;;;;;;4971899;28;20231;-64
2022/07/06 00:50:22;;;;;;;5.00;4.70;;;17.60;99.90;;;;;;4971330;28;20184;-64
2022/07/06 00:53:00;;;;;;;5.03;4.43;;;17.60;99.90;;;;;;4972406;28;20184;-65
2022/07/06 00:55:31;;;;;;;5.20;4.70;;;17.60;99.90;;;;;;4971261;28;20458;-65
2022/07/06 00:57:57;;;;;;;4.57;4.27;;;17.60;99.90;;;;;;4970332;28;20467;-65
2022/07/06 01:00:26;;;;;;;4.53;4.20;;;17.50;99.90;;;;;;4969788;28;20435;-64
2022/07/06 01:02:52;;;;;;;5.00;4.60;;;17.40;99.90;;;;;;4972544;28;20463;-65
2022/07/06 01:05:18;;;;;;;5.10;4.70;;;17.40;99.90;;;;;;4970792;28;20432;-65
2022/07/06 01:07:47;;;;;;;5.40;5.00;;;17.40;99.90;;;;;;4970401;28;20809;-65
2022/07/06 01:10:15;;;;;;;4.90;4.60;;;17.40;99.90;;;;;;4971876;28;20283;-65
2022/07/06 01:12:42;;;;;;;4.20;3.90;;;17.30;99.90;;;;;;4971022;28;20443;-65
2022/07/06 01:15:11;;;;;;;4.70;4.20;;;17.30;99.90;;;;;;4972178;28;20443;-65
2022/07/06 01:17:39;;;;;;;4.60;4.10;;;17.40;99.90;;;;;;4968166;28;20439;-65
2022/07/06 01:20:14;;;;;;;5.30;4.90;;;17.40;99.90;;;;;;4970057;28;20813;-65
2022/07/06 01:22:41;;;;;;;6.53;5.10;;;17.30;99.90;;;;;;4971044;28;20528;-65
2022/07/06 01:25:08;;;;;;;6.60;4.80;;;17.30;99.90;;;;;;4970491;28;20447;-65
2022/07/06 01:27:38;;;;;;;4.67;4.10;;;17.20;99.90;;;;;;4973139;28;20798;-65
2022/07/06 01:30:09;;;;;;;4.03;3.73;;;17.20;99.90;;;;;;4970302;28;20443;-65
2022/07/06 01:32:36;;;;;;;4.13;3.83;;;17.10;99.90;;;;;;4971652;28;20451;-65
2022/07/06 01:35:01;;;;;;;4.67;4.27;;;17.00;99.90;;;;;;4970109;28;20443;-64
2022/07/06 01:37:27;;;;;;;4.17;3.87;;;16.90;99.90;;;;;;4971836;28;20451;-64
2022/07/06 01:39:52;;;;;;;4.07;3.77;;;17.00;99.90;;;;;;4970556;28;20558;-65
2022/07/06 01:42:18;;;;;;;4.40;4.10;;;17.00;99.90;;;;;;4970278;28;20211;-65
2022/07/06 01:44:44;;;;;;;4.27;3.97;;;16.90;99.90;;;;;;4971208;28;20638;-65
2022/07/06 01:47:10;;;;;;;4.77;4.33;;;16.90;99.90;;;;;;4969813;28;20213;-65
2022/07/06 01:49:36;;;;;;;4.43;4.13;;;16.90;99.90;;;;;;4970359;28;20518;-65
2022/07/06 01:52:02;;;;;;;5.90;4.00;;;16.90;99.90;;;;;;4970857;28;20439;-65
2022/07/06 01:54:28;;;;;;;4.57;4.20;;;16.90;99.90;;;;;;4971773;28;20193;-65
2022/07/06 01:56:54;;;;;;;4.30;3.90;;;16.90;99.90;;;;;;4972621;28;20443;-64
2022/07/06 01:59:19;;;;;;;3.60;3.40;;;16.90;99.90;;;;;;4967970;28;20856;-65
2022/07/06 02:01:45;;;;;;;4.87;4.47;;;16.90;99.90;;;;;;4971022;28;20212;-65
2022/07/06 02:04:10;;;;;;;3.90;3.70;;;17.00;99.90;;;;;;4970529;28;20184;-65
2022/07/06 02:06:36;;;;;;;4.53;4.13;;;17.00;99.90;;;;;;4971270;28;20238;-65
2022/07/06 02:09:02;;;;;;;6.50;3.73;;;16.90;99.90;;;;;;4970470;28;20218;-65
2022/07/06 02:11:27;;;;;;;4.30;3.70;;;16.80;99.90;;;;;;4970750;28;20622;-65
2022/07/06 02:13:53;;;;;;;4.40;4.10;;;16.80;99.90;;;;;;4971421;28;20953;-65
2022/07/06 02:16:19;;;;;;;4.83;4.27;;;16.80;99.90;;;;;;4970430;28;20588;-65
2022/07/06 02:18:44;;;;;;;4.93;4.37;;;16.80;99.90;;;;;;4969640;28;20359;-65
2022/07/06 02:21:10;;;;;;;4.73;4.40;;;16.80;99.90;;;;;;4968531;28;20269;-65
2022/07/06 02:23:35;;;;;;;7.47;3.90;;;16.70;99.90;;;;;;4969235;28;20651;-65
2022/07/06 02:26:01;;;;;;;4.00;3.70;;;16.70;99.90;;;;;;4969043;28;20180;-65
2022/07/06 02:28:26;;;;;;;3.33;3.13;;;16.60;99.90;;;;;;4970326;28;20665;-65
2022/07/06 02:30:52;;;;;;;4.47;3.77;;;16.60;99.90;;;;;;4971242;28;20184;-65
2022/07/06 02:33:17;;;;;;;4.13;3.80;;;16.50;99.90;;;;;;4968439;28;20184;-65
2022/07/06 02:35:43;;;;;;;4.07;3.70;;;16.60;99.90;;;;;;4970996;28;20185;-65
2022/07/06 02:38:09;;;;;;;4.83;4.43;;;16.60;99.90;;;;;;4970126;28;20275;-65
2022/07/06 02:40:35;;;;;;;3.83;3.63;;;16.60;99.90;;;;;;4971699;28;20181;-65
2022/07/06 02:43:01;;;;;;;5.40;5.00;;;16.50;99.90;;;;;;4969166;28;20614;-65
2022/07/06 02:45:26;;;;;;;4.73;4.30;;;16.50;99.90;;;;;;4970586;28;20443;-65
2022/07/06 02:47:55;;;;;;;4.00;3.77;;;16.50;99.90;;;;;;4969640;28;20195;-65
2022/07/06 02:50:20;;;;;;;3.80;3.50;;;16.50;99.90;;;;;;4970188;28;20270;-65
2022/07/06 02:52:46;;;;;;;4.00;3.60;;;16.50;99.90;;;;;;4969755;28;20468;-65
2022/07/06 02:55:11;;;;;;;4.87;4.53;;;16.40;99.90;;;;;;4967595;28;20191;-65
2022/07/06 02:57:37;;;;;;;4.57;4.27;;;16.30;99.90;;;;;;4970783;28;20208;-65
2022/07/06 03:00:03;;;;;;;4.80;4.40;;;16.30;99.90;;;;;;4969601;28;20215;-65
2022/07/06 03:02:29;;;;;;;4.20;3.70;;;16.20;99.90;;;;;;4970358;28;20211;-65
2022/07/06 03:04:56;;;;;;;3.93;3.50;;;16.20;99.90;;;;;;4970106;28;20431;-65
2022/07/06 03:07:22;;;;;;;4.83;4.27;;;16.30;99.90;;;;;;4969155;28;20168;-65
2022/07/06 03:09:47;;;;;;;4.43;4.03;;;16.30;99.90;;;;;;4968112;28;20901;-65
2022/07/06 03:12:13;;;;;;;4.63;4.27;;;16.20;99.90;;;;;;4969041;28;20184;-64
2022/07/06 03:14:39;;;;;;;4.60;4.30;;;16.20;99.90;;;;;;4970957;28;20212;-65
2022/07/06 03:17:04;;;;;;;5.60;5.10;;;16.20;99.90;;;;;;4968871;28;20707;-65
2022/07/06 03:19:30;;;;;;;4.43;4.03;;;16.00;99.90;;;;;;4970139;28;20242;-65
2022/07/06 03:21:55;;;;;;;5.17;4.67;;;15.90;99.90;;;;;;4972962;28;20625;-71
2022/07/06 03:24:21;;;;;;;4.63;4.23;;;15.80;99.90;;;;;;4974530;28;20200;-72
2022/07/06 03:26:46;;;;;;;5.57;5.07;;;16.00;99.90;;;;;;4972295;28;20187;-74
2022/07/06 03:29:13;;;;;;;4.93;4.20;;;16.00;99.90;;;;;;4972681;28;20192;-72
2022/07/06 03:31:38;;;;;;;5.23;4.73;;;16.00;99.90;;;;;;4973613;28;20284;-72
2022/07/06 03:34:04;;;;;;;5.63;4.90;;;16.00;99.90;;;;;;4969195;28;20436;-72
2022/07/06 03:36:29;;;;;;;5.73;5.20;;;16.00;99.90;;;;;;4974132;28;20183;-72
2022/07/06 03:38:55;;;;;;;4.87;4.57;;;15.90;99.90;;;;;;4972632;28;20200;-72
2022/07/06 03:41:21;;;;;;;5.80;5.30;;;15.90;99.90;;;;;;4969287;28;20208;-75
2022/07/06 03:43:46;;;;;;;6.30;5.07;;;15.80;99.90;;;;;;4962048;28;20180;-72
2022/07/06 03:46:12;;;;;;;4.90;4.50;;;15.80;99.90;;;;;;4977181;28;20219;-73
2022/07/06 03:48:37;;;;;;;4.90;4.40;;;15.80;99.90;;;;;;4971320;28;20196;-74
2022/07/06 03:51:03;;;;;;;4.80;4.40;;;15.90;99.90;;;;;;4973369;28;20175;-72
2022/07/06 03:53:28;;;;;;;5.17;4.87;;;15.90;99.90;;;;;;4971094;28;20195;-73
2022/07/06 03:58:38;;;;;;;5.40;5.00;;;15.90;99.90;;;;;;4972180;28;20254;-72
2022/07/06 04:01:03;;;;;;;6.00;5.43;;;15.90;99.90;;;;;;4971024;28;21048;-73
2022/07/06 04:03:29;;;;;;;4.93;4.53;;;16.00;99.90;;;;;;4971173;28;20664;-73
2022/07/06 04:05:54;;;;;;;6.30;5.80;;;16.10;99.90;;;;;;4973151;28;20227;-72
2022/07/06 04:08:20;;;;;;;5.60;5.20;;;16.10;99.90;;;;;;5001654;23;20223;-67
2022/07/06 04:10:45;;;;;;;10.07;5.23;;;16.20;99.90;;;;;;4984538;28;20188;-66
2022/07/06 04:13:11;;;;;;;6.00;5.40;;;16.20;99.90;;;;;;4987255;28;20707;-67
2022/07/06 04:15:39;;;;;;;5.57;5.07;;;16.30;99.90;;;;;;4993084;28;20566;-68
2022/07/06 04:18:05;;;;;;;9.10;5.30;;;16.30;99.90;;;;;;4978198;28;20485;-63
2022/07/06 04:20:32;;;;;;;5.47;5.00;;;16.50;99.90;;;;;;5011720;28;20569;-67
2022/07/06 04:22:58;;;;;;;6.13;5.63;;;16.50;99.90;;;;;;5007327;28;20466;-67
2022/07/06 04:25:24;;;;;;;6.07;5.47;;;16.60;99.90;;;;;;4989132;28;20443;-68
2022/07/06 04:27:49;;;;;;;6.87;5.67;;;16.70;99.90;;;;;;5006456;28;20437;-66
2022/07/06 04:30:15;;;;;;;5.70;5.20;;;16.80;99.90;;;;;;4987583;28;20538;-66
2022/07/06 04:32:41;;;;;;;5.07;4.57;;;16.80;99.90;;;;;;4989458;28;20188;-67
2022/07/06 04:35:07;;;;;;;6.70;6.10;;;16.80;99.90;;;;;;4993893;28;20179;-66
2022/07/06 04:37:35;;;;;;;6.47;5.97;;;16.80;99.90;;;;;;4992743;28;20185;-66
2022/07/06 04:40:01;;;;;;;5.30;4.90;;;17.00;99.90;;;;;;4994265;28;20455;-66
2022/07/06 04:42:27;;;;;;;8.07;4.57;;;17.20;99.90;;;;;;4991121;28;20474;-66
2022/07/06 04:44:52;;;;;;;6.13;5.50;;;17.20;99.90;;;;;;4985589;28;20235;-65
2022/07/06 04:47:18;;;;;;;5.43;5.03;;;17.20;99.90;;;;;;5007619;28;20211;-68
2022/07/06 04:49:44;;;;;;;7.37;5.80;;;17.40;99.90;;;;;;4991321;28;20193;-66
2022/07/06 04:52:09;;;;;;;6.33;5.70;;;17.40;99.90;;;;;;4991614;28;20175;-65
2022/07/06 04:54:35;;;;;;;5.10;4.60;;;17.50;99.90;;;;;;5010266;28;20469;-64
2022/07/06 04:57:01;;;;;;;6.30;5.70;;;17.50;99.90;;;;;;4994615;28;20179;-68
2022/07/06 04:59:27;;;;;;;6.37;5.73;;;17.60;99.90;;;;;;4991630;28;21361;-68
2022/07/06 05:01:52;;;;;;;6.50;6.00;;;17.60;99.90;;;;;;4991242;28;20275;-65
2022/07/06 05:04:19;;;;;;;9.70;5.57;;;17.80;99.90;;;;;;5012079;28;20175;-66
2022/07/06 05:06:45;;;;;;;6.10;5.50;;;17.70;99.90;;;;;;4985034;28;20186;-67
2022/07/06 05:09:12;;;;;;;6.37;5.97;;;18.00;99.90;;;;;;4993765;28;20474;-67
2022/07/06 05:11:38;;;;;;;5.50;5.10;;;18.10;99.90;;;;;;5000689;28;20450;-68
2022/07/06 05:14:04;;;;;;;7.27;6.67;;;18.20;99.90;;;;;;5013532;28;20530;-68
2022/07/06 05:16:30;;;;;;;6.87;6.40;;;18.20;99.90;;;;;;5016130;28;20555;-66
2022/07/06 05:18:55;;;;;;;5.57;5.20;;;18.20;99.90;;;;;;5003443;28;20461;-66
2022/07/06 05:21:21;;;;;;;5.97;5.33;;;18.30;99.90;;;;;;5018497;28;20212;-68
2022/07/06 05:23:47;;;;;;;5.40;5.00;;;18.40;99.90;;;;;;4999703;28;20202;-68
2022/07/06 05:26:12;;;;;;;5.87;5.23;;;18.60;99.90;;;;;;5000839;28;20180;-67
2022/07/06 05:28:38;;;;;;;6.87;4.60;;;18.80;99.90;;;;;;5013213;28;20191;-65
2022/07/06 05:31:03;;;;;;;8.20;5.50;;;18.90;99.90;;;;;;5018952;28;20218;-66
2022/07/06 05:33:29;;;;;;;4.90;4.60;;;19.00;99.90;;;;;;5016789;28;20262;-65
2022/07/06 05:35:55;;;;;;;5.60;5.10;;;19.10;99.90;;;;;;5016992;28;20534;-66
2022/07/06 05:38:21;;;;;;;5.43;4.90;;;19.00;99.90;;;;;;4997695;28;20199;-68
2022/07/06 05:40:46;;;;;;;5.80;5.30;;;19.10;99.90;;;;;;5015550;28;20184;-67
2022/07/06 05:43:14;;;;;;;5.50;5.10;;;19.30;99.90;;;;;;5019047;28;20465;-68
2022/07/06 05:45:41;;;;;;;7.17;4.87;;;19.20;99.90;;;;;;5001781;28;20197;-67
2022/07/06 05:50:51;;;;;;;6.33;5.93;;;19.30;99.90;;;;;;5016237;28;20449;-66
2022/07/06 05:53:16;;;;;;;5.70;4.97;;;19.40;99.90;;;;;;5014112;28;20458;-66
2022/07/06 05:55:45;;;;;;;6.47;4.73;;;19.40;99.90;;;;;;5010153;28;20196;-65
2022/07/06 05:58:11;;;;;;;7.10;6.40;;;19.40;99.90;;;;;;4996100;28;20486;-66
2022/07/06 06:00:40;;;;;;;5.20;4.80;;;19.60;99.90;;;;;;4987429;28;20429;-65
2022/07/06 06:03:06;;;;;;;5.30;4.90;;;19.60;99.90;;;;;;4998297;28;20470;-66
2022/07/06 06:05:31;;;;;;;7.00;5.50;;;19.50;99.90;;;;;;4994644;28;21018;-66
2022/07/06 06:07:57;;;;;;;5.20;4.00;;;19.70;99.90;;;;;;4986047;28;20188;-68
2022/07/06 06:10:23;;;;;;;6.37;5.97;;;19.60;99.90;;;;;;4998556;28;20237;-67
2022/07/06 06:12:49;;;;;;;9.60;5.10;;;19.70;99.90;;;;;;4999428;28;20178;-67
2022/07/06 06:15:14;;;;;;;5.63;4.90;;;19.60;99.90;;;;;;4996819;28;20510;-68
2022/07/06 06:17:40;;;;;;;6.17;4.70;;;19.40;99.90;;;;;;4995655;28;20493;-68
2022/07/06 06:20:08;;;;;;;6.23;5.37;;;19.30;99.90;;;;;;4994254;28;20208;-68
2022/07/06 06:22:49;;;;;;;5.80;5.30;;;19.10;99.90;;;;;;4995140;28;20206;-68
2022/07/06 06:25:20;;;;;;;5.37;4.90;;;19.10;99.90;;;;;;4996181;28;20446;-68
2022/07/06 06:27:46;;;;;;;7.00;5.10;;;19.30;99.90;;;;;;4997557;28;20439;-66
2022/07/06 06:30:12;;;;;;;7.03;4.90;;;19.60;99.90;;;;;;5002023;28;20423;-64
2022/07/06 06:32:38;;;;;;;5.10;4.70;;;19.70;99.90;;;;;;5003812;28;20222;-66
2022/07/06 06:35:04;;;;;;;5.20;4.80;;;19.70;99.90;;;;;;4971882;28;20810;-64
2022/07/06 06:37:30;;;;;;;5.60;5.10;;;20.10;99.90;;;;;;4989215;28;20536;-62
2022/07/06 06:39:55;;;;;;;5.00;4.70;;;20.30;99.90;;;;;;4987503;28;20512;-65
2022/07/06 06:42:21;;;;;;;4.70;4.40;;;20.20;99.90;;;;;;4997848;28;20230;-65
2022/07/06 06:44:46;;;;;;;5.90;5.07;;;20.10;99.90;;;;;;5006561;28;20183;-64
2022/07/06 06:47:12;;;;;;;6.73;4.03;;;20.00;99.90;;;;;;4989696;28;20203;-67
2022/07/06 06:49:37;;;;;;;4.87;4.40;;;20.10;99.90;;;;;;4992081;28;20602;-66
2022/07/06 06:52:03;;;;;;;4.20;3.90;;;20.20;99.90;;;;;;4996930;28;20174;-66
2022/07/06 06:54:29;;;;;;;6.17;4.70;;;20.30;99.90;;;;;;5009185;28;20217;-66
2022/07/06 06:56:54;;;;;;;5.80;4.10;;;20.50;99.90;;;;;;4999010;28;20179;-66
2022/07/06 06:59:20;;;;;;;4.60;4.20;;;20.80;99.90;;;;;;5004339;28;20278;-65
2022/07/06 07:01:45;;;;;;;5.50;4.10;;;21.20;99.90;;;;;;4994786;28;20911;-66
2022/07/06 07:04:11;;;;;;;4.60;4.20;;;21.60;99.90;;;;;;4993274;28;20186;-63
2022/07/06 07:06:37;;;;;;;5.43;5.03;;;21.80;99.90;;;;;;4998195;28;20183;-67
2022/07/06 07:09:02;;;;;;;8.20;4.03;;;22.30;99.40;;;;;;5002177;28;20207;-66
2022/07/06 07:11:28;;;;;;;4.83;4.43;;;22.80;98.60;;;;;;4999083;28;20179;-65
2022/07/06 07:13:54;;;;;;;5.83;3.90;;;23.10;96.90;;;;;;4994263;28;20247;-66
2022/07/06 07:16:20;;;;;;;5.30;4.27;;;22.90;96.20;;;;;;4994290;28;20187;-65
2022/07/06 07:18:45;;;;;;;4.03;3.80;;;23.10;96.30;;;;;;4972447;28;22025;-65
2022/07/06 07:21:11;;;;;;;5.63;4.03;;;22.80;96.90;;;;;;4971040;28;20434;-66
2022/07/06 07:23:36;;;;;;;4.03;3.63;;;23.10;95.50;;;;;;4994887;28;20253;-66
2022/07/06 07:26:02;;;;;;;5.13;4.67;;;23.30;95.00;;;;;;5002143;28;20184;-66
2022/07/06 07:28:27;;;;;;;4.13;3.60;;;23.50;94.10;;;;;;4997711;28;20202;-66
2022/07/06 07:30:53;;;;;;;4.50;4.10;;;23.70;94.30;;;;;;5005962;28;20179;-66
2022/07/06 07:33:18;;;;;;;4.63;3.63;;;24.00;94.10;;;;;;5002767;28;20529;-66
2022/07/06 07:35:44;;;;;;;7.80;4.87;;;24.20;93.60;;;;;;4993385;28;20650;-66
2022/07/06 07:38:10;;;;;;;5.10;4.00;;;24.20;92.70;;;;;;4999646;28;20202;-61
2022/07/06 07:40:35;;;;;;;5.00;3.67;;;23.90;92.70;;;;;;5000370;28;20175;-65
2022/07/06 07:43:01;;;;;;;4.47;3.67;;;24.20;92.00;;;;;;5002182;28;20540;-67
2022/07/06 07:45:27;;;;;;;4.60;4.20;;;24.30;91.00;;;;;;5003475;28;20211;-66
2022/07/06 07:47:52;;;;;;;3.10;2.90;;;24.50;90.40;;;;;;4988123;28;20175;-67
2022/07/06 07:50:18;;;;;;;5.13;3.70;;;24.60;90.20;;;;;;5003637;28;20183;-65
2022/07/06 07:52:44;;;;;;;3.53;3.33;;;24.80;90.20;;;;;;5007561;28;20179;-65
2022/07/06 07:55:10;;;;;;;4.13;3.83;;;25.10;89.30;;;;;;4992073;28;20195;-66
2022/07/06 07:57:35;;;;;;;3.70;3.50;;;25.20;88.90;;;;;;4991198;28;20538;-66
2022/07/06 08:00:01;;;;;;;5.73;3.90;;;25.30;85.60;;;;;;4993110;28;20199;-66
2022/07/06 08:02:27;;;;;;;4.03;2.87;;;25.30;85.00;;;;;;4993752;28;20266;-67
2022/07/06 08:04:52;;;;;;;3.57;3.27;;;25.50;85.80;;;;;;4970136;28;20597;-66
2022/07/06 08:07:18;;;;;;;5.00;3.80;;;25.50;83.60;;;;;;4988213;28;20180;-65
2022/07/06 08:09:43;;;;;;;3.83;3.33;;;25.50;82.30;;;;;;4994846;28;20417;-66
2022/07/06 08:12:09;;;;;;;3.87;3.47;;;25.40;81.90;;;;;;4984758;28;20184;-66
2022/07/06 08:14:37;;;;;;;3.83;3.53;;;24.90;83.70;;;;;;4990749;28;20191;-66
2022/07/06 08:17:03;;;;;;;3.67;3.37;;;25.10;83.30;;;;;;4990507;28;20263;-66
2022/07/06 08:19:30;;;;;;;3.80;3.37;;;25.50;81.90;;;;;;4984879;28;20470;-66
2022/07/06 08:21:56;;;;;;;9.73;3.70;;;25.70;80.60;;;;;;4990957;28;20188;-70
2022/07/06 08:24:21;;;;;;;3.80;3.60;;;25.50;80.60;;;;;;4986166;28;20449;-65
2022/07/06 08:26:46;;;;;;;4.57;4.17;;;25.80;81.60;;;;;;4989726;28;20179;-67
2022/07/06 08:29:12;;;;;;;5.20;3.83;;;26.00;80.80;;;;;;4990847;28;20222;-66
2022/07/06 08:31:37;;;;;;;4.10;3.60;;;26.00;82.60;;;;;;5001415;28;20255;-66
2022/07/06 08:34:03;;;;;;;4.20;3.90;;;26.30;80.60;;;;;;5000682;28;20653;-66
2022/07/06 08:36:29;;;;;;;4.07;3.67;;;26.40;80.10;;;;;;5000654;28;20190;-66
2022/07/06 08:38:55;;;;;;;6.27;3.70;;;26.20;77.70;;;;;;4989184;28;20204;-65
2022/07/06 08:41:23;;;;;;;6.10;4.10;;;26.00;79.30;;;;;;4991084;28;20517;-65
2022/07/06 08:43:50;;;;;;;5.33;4.83;;;26.00;78.50;;;;;;4991771;28;20203;-67
2022/07/06 08:46:16;;;;;;;3.90;3.63;;;26.10;78.00;;;;;;4989400;28;20438;-65
2022/07/06 08:48:41;;;;;;;4.00;3.70;;;26.10;78.90;;;;;;4986133;28;20458;-65
2022/07/06 08:51:07;;;;;;;4.93;3.37;;;26.40;79.20;;;;;;4991107;28;20807;-66
2022/07/06 08:53:33;;;;;;;5.07;4.40;;;26.70;77.30;;;;;;4988809;28;20172;-65
2022/07/06 08:56:01;;;;;;;3.83;3.43;;;26.60;76.40;;;;;;4987206;28;20633;-67
2022/07/06 08:58:27;;;;;;;4.30;3.90;;;26.60;76.10;;;;;;4989903;28;21403;-64
2022/07/06 09:00:54;;;;;;;5.13;4.20;;;26.80;75.90;;;;;;4991179;28;20435;-65
2022/07/06 09:03:20;;;;;;;4.83;3.73;;;26.80;77.40;;;;;;4991482;28;20455;-63
2022/07/06 09:05:47;;;;;;;4.90;3.90;;;27.00;76.90;;;;;;4990146;28;20438;-66
2022/07/06 09:08:13;;;;;;;9.50;5.03;;;27.20;75.60;;;;;;4986381;28;20577;-62
2022/07/06 09:10:39;;;;;;;4.83;4.17;;;26.90;76.00;;;;;;4988601;28;20450;-63
2022/07/06 09:13:06;;;;;;;3.80;3.60;;;26.70;75.20;;;;;;4987508;28;20438;-66
2022/07/06 09:15:33;;;;;;;7.90;4.70;;;27.10;75.20;;;;;;4988521;28;20250;-67
2022/07/06 09:17:59;;;;;;;5.43;4.60;;;27.20;73.50;;;;;;4983461;28;20956;-66
2022/07/06 09:20:25;;;;;;;5.33;3.80;;;27.00;73.70;;;;;;4993156;28;20470;-66
2022/07/06 09:22:53;;;;;;;5.10;4.50;;;26.60;75.70;;;;;;4989490;28;20295;-64
2022/07/06 09:25:19;;;;;;;8.10;3.93;;;26.90;74.90;;;;;;4988784;28;20191;-63
2022/07/06 09:27:54;;;;;;;4.70;3.90;;;27.20;73.10;;;;;;4981857;28;21274;-63
2022/07/06 09:30:20;;;;;;;4.47;4.00;;;27.40;73.90;;;;;;4979314;28;20179;-64
2022/07/06 09:32:51;;;;;;;4.20;3.80;;;27.70;74.50;;;;;;4986181;28;20490;-66
2022/07/06 09:35:27;;;;;;;4.43;3.80;;;27.20;74.90;;;;;;4977938;28;20443;-65
2022/07/06 09:38:07;;;;;;;4.67;4.27;;;27.50;74.00;;;;;;5100713;27;21991;-67
2022/07/06 09:40:35;;;;;;;7.87;3.80;;;27.80;72.40;;;;;;5064415;28;20463;-66
2022/07/06 09:43:11;;;;;;;5.33;4.83;;;28.00;71.40;;;;;;5069130;28;20886;-66
2022/07/06 09:45:39;;;;;;;4.53;4.20;;;28.40;72.10;;;;;;5071040;28;20427;-65
2022/07/06 09:48:12;;;;;;;8.97;4.10;;;28.40;70.70;;;;;;5075534;28;20544;-63
2022/07/06 09:50:46;;;;;;;4.73;4.23;;;28.90;69.10;;;;;;5078493;28;20438;-65
2022/07/06 09:53:13;;;;;;;5.97;5.37;;;28.90;68.10;;;;;;5088379;28;20429;-66
2022/07/06 09:55:42;;;;;;;4.57;4.27;;;28.80;67.50;;;;;;5067359;28;20419;-65
2022/07/06 09:58:08;;;;;;;3.87;3.67;;;28.60;68.50;;;;;;5069122;28;20462;-64
2022/07/06 10:00:34;;;;;;;4.30;3.90;;;29.00;68.70;;;;;;5081459;28;20442;-65
2022/07/06 10:03:00;;;;;;;4.87;4.47;;;29.60;68.00;;;;;;5072175;28;20177;-64
2022/07/06 10:05:29;;;;;;;4.03;3.73;;;30.40;64.70;;;;;;5077001;28;20435;-64
2022/07/06 10:07:57;;;;;;;8.00;6.00;;;31.20;62.90;;;;;;5070676;28;20184;-65
2022/07/06 10:10:29;;;;;;;4.87;4.40;;;31.30;61.50;;;;;;5078733;28;20433;-64
2022/07/06 10:12:56;;;;;;;6.17;3.37;;;29.90;61.70;;;;;;5069613;28;20966;-64
2022/07/06 10:15:26;;;;;;;4.87;4.43;;;28.90;64.20;;;;;;5074011;28;20461;-64
2022/07/06 10:17:53;;;;;;;5.20;4.63;;;29.10;63.90;;;;;;5076206;28;20962;-64
2022/07/06 10:20:20;;;;;;;4.80;4.40;;;30.70;61.40;;;;;;5077098;28;22429;-64
2022/07/06 10:22:48;;;;;;;5.37;4.70;;;31.30;59.00;;;;;;5084541;28;20445;-63
2022/07/06 10:25:16;;;;;;;6.50;5.50;;;31.30;58.70;;;;;;5070263;28;20433;-64
2022/07/06 10:27:42;;;;;;;4.93;4.43;;;31.10;58.00;;;;;;5068785;28;20464;-64
2022/07/06 10:30:09;;;;;;;3.90;3.60;;;31.80;58.10;;;;;;5068058;28;20459;-62
2022/07/06 10:32:36;;;;;;;4.80;4.40;;;32.30;56.90;;;;;;5069807;28;21526;-64
2022/07/06 10:35:02;;;;;;;5.33;4.20;;;33.00;55.90;;;;;;5071673;28;20909;-65
2022/07/06 10:37:28;;;;;;;4.57;4.17;;;34.00;54.00;;;;;;5071656;28;20557;-67
2022/07/06 10:42:43;;;;;;;3.67;3.37;;;33.30;52.70;;;;;;5072091;28;20463;-64
2022/07/06 10:45:14;;;;;;;14.67;13.60;;;33.90;51.10;;;;;;5070072;28;20445;-67
2022/07/06 10:47:41;;;;;;;65.33;53.23;;;33.10;51.70;;;;;;5063140;28;20439;-65
2022/07/06 10:50:07;;;;;;;5.53;4.57;;;33.50;51.40;;;;;;5058857;28;20486;-65
2022/07/06 10:52:56;;;;;;;88.03;79.40;;;33.60;51.20;;;;;;5068753;28;21050;-65
2022/07/06 10:55:32;;;;;;;5.40;4.93;;;35.20;50.10;;;;;;5070426;28;20207;-65
2022/07/06 10:57:58;;;;;;;9.67;8.77;;;35.00;49.20;;;;;;5059625;28;20481;-67
2022/07/06 11:00:24;;;;;;;8.57;6.57;;;35.40;48.20;;;;;;5066257;28;20447;-66
2022/07/06 11:02:49;;;;;;;4.57;4.13;;;35.50;47.10;;;;;;5067354;28;20447;-66
2022/07/06 11:05:40;;;;;;;6.57;6.00;;;35.50;48.10;;;;;;5059772;28;20782;-65
2022/07/06 11:08:09;;;;;;;5.60;5.20;;;35.80;47.20;;;;;;5069883;28;20219;-66
2022/07/06 11:10:47;;;;;;;7.83;7.20;;;34.10;47.60;;;;;;5059492;28;20432;-66
2022/07/06 11:13:28;;;;;;;6.23;5.57;;;31.60;50.20;;;;;;5071402;28;20468;-68
2022/07/06 11:16:04;;;;;;;5.00;4.28;;;30.50;52.50;;;;;;5060502;28;20438;-65
2022/07/06 11:18:45;;;;;;;5.80;5.20;;;32.00;52.00;;;;;;5064435;28;20689;-68
2022/07/06 11:21:18;;;;;;;4.93;4.43;;;34.10;49.40;;;;;;5064773;28;20445;-67
2022/07/06 11:23:47;;;;;;;11.80;9.07;;;36.00;46.60;;;;;;5071364;28;21033;-68
2022/07/06 11:26:13;;;;;;;5.03;4.63;;;36.80;45.60;;;;;;5069843;28;20447;-68
2022/07/06 11:28:38;;;;;;;4.37;4.07;;;37.50;44.70;;;;;;5064932;28;20456;-69
2022/07/06 11:31:04;;;;;;;5.13;4.30;;;38.30;42.90;;;;;;5067408;28;20187;-68
2022/07/06 11:33:30;;;;;;;4.13;3.93;;;38.70;41.60;;;;;;5061358;28;20172;-69
2022/07/06 11:36:16;;;;;;;4.33;4.07;;;38.40;41.20;;;;;;5076598;28;20205;-69
2022/07/06 11:38:43;;;;;;;5.27;3.93;;;37.00;42.10;;;;;;5061018;28;20580;-68
2022/07/06 11:41:09;;;;;;;3.50;3.30;;;36.60;42.70;;;;;;5060190;28;20426;-68
2022/07/06 11:43:34;;;;;;;5.07;4.63;;;36.40;43.40;;;;;;5053682;28;20438;-68
2022/07/06 11:46:00;;;;;;;5.00;4.50;;;34.70;44.10;;;;;;5051165;28;20651;-69
2022/07/06 11:48:26;;;;;;;3.83;3.43;;;33.00;45.70;;;;;;5051715;28;20200;-69
2022/07/06 11:51:02;;;;;;;6.50;4.00;;;32.20;47.00;;;;;;5055784;28;20192;-68
2022/07/06 11:53:27;;;;;;;4.20;3.80;;;32.80;46.80;;;;;;5054624;28;20188;-67
2022/07/06 11:55:53;;;;;;;4.80;4.40;;;33.90;45.70;;;;;;5060871;28;20435;-68
2022/07/06 11:58:22;;;;;;;5.87;5.20;;;34.10;45.20;;;;;;5058339;28;20197;-69
2022/07/06 12:01:07;;;;;;;7.27;4.33;;;34.90;45.30;;;;;;5064269;28;20439;-67
2022/07/06 12:03:34;;;;;;;5.33;4.93;;;34.80;44.80;;;;;;5059332;28;20513;-67
2022/07/06 12:06:04;;;;;;;4.50;4.10;;;36.00;43.90;;;;;;5056470;28;20505;-69
2022/07/06 12:08:29;;;;;;;4.47;4.13;;;37.20;42.50;;;;;;5048658;28;20474;-67
2022/07/06 12:10:56;;;;;;;5.50;4.13;;;38.30;41.30;;;;;;5054952;28;20493;-68
2022/07/06 12:13:22;;;;;;;5.27;3.90;;;39.00;41.10;;;;;;5050416;28;20186;-68
2022/07/06 12:15:48;;;;;;;4.93;3.40;;;39.10;40.40;;;;;;5048505;28;20439;-66
2022/07/06 12:18:13;;;;;;;5.03;4.60;;;38.50;40.50;;;;;;5055183;28;20491;-70
2022/07/06 12:20:39;;;;;;;4.10;3.80;;;37.70;41.10;;;;;;5057348;28;20202;-66
2022/07/06 12:23:06;;;;;;;4.40;4.00;;;38.60;40.20;;;;;;5054246;28;20177;-67
2022/07/06 12:25:32;;;;;;;4.93;4.47;;;37.00;40.90;;;;;;5064931;28;20193;-67
2022/07/06 12:27:58;;;;;;;5.27;4.43;;;35.30;42.30;;;;;;5055929;28;20516;-68
2022/07/06 12:30:24;;;;;;;6.93;4.67;;;34.20;43.50;;;;;;5053492;28;21111;-66
2022/07/06 12:33:15;;;;;;;6.80;4.60;;;33.50;44.00;;;;;;5056829;28;20184;-66
2022/07/06 12:35:44;;;;;;;5.67;5.17;;;32.70;45.50;;;;;;5069632;28;20184;-68
2022/07/06 12:38:10;;;;;;;5.43;4.90;;;31.40;46.60;;;;;;5058292;28;21801;-66
2022/07/06 12:40:37;;;;;;;8.03;4.70;;;30.60;48.00;;;;;;5068416;28;20426;-67
2022/07/06 12:43:04;;;;;;;6.30;5.20;;;30.40;48.80;;;;;;5076684;28;20629;-66
2022/07/06 12:45:30;;;;;;;6.00;5.50;;;31.70;47.70;;;;;;5063071;28;20434;-67
2022/07/06 12:48:05;;;;;;;5.07;4.40;;;34.70;45.10;;;;;;5055768;28;20613;-68
2022/07/06 12:50:38;;;;;;;5.33;4.67;;;35.80;42.70;;;;;;5063778;28;20749;-66
2022/07/06 12:53:07;;;;;;;6.60;4.67;;;34.10;43.30;;;;;;5060397;28;20688;-69